Aeroboteco Virtual Airline

Aeroboteco Virtual Airlines! Uma nuvem a frente.



 INFORMAÇÕES METEOROLÓGICAS
METAR FOR LESA
ADDS - METARS form results

(1013 UTC 16 January 2019)
Data provider http://aviationweather.gov/metar/data/
 
METAR text: LESA 161000Z 00000KT 0200 R21/0250D FZFG VV001 M01/M02 Q1019
Conditions at: LESA (SALAMANCA (CIV/M, ES) observed 1000 UTC 16 January 2019
Temperature: -1.0°C (30°F)
Dewpoint: -2.0°C (28°F) [RH = 93%]
Pressure (altimeter): 30.09 inches Hg (1019.0 mb)
Winds: calm
Visibility: 0.12 miles (0.19 km)
Ceiling: indefinite ceiling with vertical visibility of 100 feet AGL
Clouds: obscured sky
Weather: FZFG  (freezing fog)

METAR text: LESA 160944Z 00000KT 0700 R21/1400D FZFG VV002 M02/M02 Q1019
Conditions at: LESA (SALAMANCA (CIV/M, ES) observed 0944 UTC 16 January 2019
Temperature: -2.0°C (28°F)
Dewpoint: -2.0°C (28°F) [RH = 100%]
Pressure (altimeter): 30.09 inches Hg (1019.0 mb)
Winds: calm
Visibility: 0.43 miles (0.69 km)
Ceiling: indefinite ceiling with vertical visibility of 200 feet AGL
Clouds: obscured sky
Weather: FZFG  (freezing fog)

METAR text: LESA 160935Z VRB01KT 1200 R21/P2000 VCFG BKN002 M02/M02 Q1019
Conditions at: LESA (SALAMANCA (CIV/M, ES) observed 0935 UTC 16 January 2019
Temperature: -2.0°C (28°F)
Dewpoint: -2.0°C (28°F) [RH = 100%]
Pressure (altimeter): 30.09 inches Hg (1019.0 mb)
Winds: variable direction winds at 1 MPH (1 knots; 0.5 m/s)
Visibility: 0.75 miles (1.21 km)
Ceiling: 200 feet AGL
Clouds: broken clouds at 200 feet AGL
Weather: VCFG  (fog in vicinity)

METAR text: LESA 160930Z 31002KT 3000 BR BKN002 M02/M02 Q1019
Conditions at: LESA (SALAMANCA (CIV/M, ES) observed 0930 UTC 16 January 2019
Temperature: -2.0°C (28°F)
Dewpoint: -2.0°C (28°F) [RH = 100%]
Pressure (altimeter): 30.09 inches Hg (1019.0 mb)
Winds: from the NW (310 degrees) at 2 MPH (2 knots; 1.0 m/s)
Visibility: 1.86 miles (2.99 km)
Ceiling: 200 feet AGL
Clouds: broken clouds at 200 feet AGL
Weather: BR  (mist)

Forecast for: AMD
Text: TAF AMD LESA 160841Z 1608/1706 VRB04KT CAVOK TX06/1615Z TNM03/1706Z
Forecast period: 0800 UTC 16 January 2019 to 0600 UTC 17 January 2019
Forecast type: FROM: standard forecast or significant change
Winds: variable direction winds at 5 MPH (4 knots; 2.1 m/s)
Visibility: 6 or more miles 10+ km)
Ceiling: unknown
Clouds: missing
Weather: no significant weather forecast for this period
Text: TEMPO 1608/1610 1400 BCFG BKN005
Forecast period: 0800 to 1000 UTC 16 January 2019
Forecast type: TEMPORARY: The following changes expected for less than half the time period
Visibility: 0.87 miles (1.40 km)
Ceiling: 500 feet AGL
Clouds: broken clouds at 500 feet AGL
Weather: BCFG  (patches of fog)
Text: PROB40
Forecast period: 0800 to 1000 UTC 16 January 2019
Forecast type: TEMPORARY: The following changes expected for less than half the time period
Visibility: 0.12 miles (0.19 km)
Ceiling: indefinite ceiling with vertical visibility of 100 feet AGL
Clouds: obscured sky
Weather: FZFG  (freezing fog)
Text: TEMPO 1608/1610 0200 FZFG VV001
Forecast period: 2100 UTC 16 January 2019 to 0600 UTC 17 January 2019
Forecast type: PROBABLE: 40 percent likelihood of the following during this time
Visibility: 0.93 miles (1.50 km)
Ceiling: 300 feet AGL
Clouds: broken clouds at 300 feet AGL
Weather: BCFG  (patches of fog)

 MAPA DO AEROPORTO

 INFORMAÇÕES DA PISTA
Pista 03 Tamanho da pista 8202 ft Largura da pista 197 ft
Elevação da pista 2595 ft Ranhura da pista 0 ft Proa da pista 28
Pista 21 Tamanho da pista 8202 ft Largura da pista 197 ft
Elevação da pista 2586 ft Ranhura da pista 0 ft Proa da pista 208
Pista 08 Tamanho da pista 6594 ft Largura da pista 400 ft
Elevação da pista 2587 ft Ranhura da pista 0 ft Proa da pista 74
Pista 26 Tamanho da pista 6594 ft Largura da pista 400 ft
Elevação da pista 2588 ft Ranhura da pista 0 ft Proa da pista 254

 FREQUÊNCIAS DO AEROPORTO
Tipo APP Nome APP Frequência 124.4 MHZ
Tipo GND Nome GND Frequência 121.85 MHZ
Tipo TWR Nome TWR Frequência 139.3 MHZ

 AUXÍLIOS DE NAVEGAÇÃO PRÓXIMOS AO AEROPORTO
Tipo VOR-DME Nome Salamanca Frequência 112200 KHZ
Tipo NDB Nome Salamanca Frequência 399 KHZ
Tipo NDB Nome Salamanca Frequência 423 KHZ
Tipo TACAN Nome Salamanca Frequência 113300 KHZ